Dades meteomassalio
Diari Summary for Octubre 24, 2017 Units:  English    Metric   Both
« Previous Day
Next Day »
Diari Semanal Mensual Anual Personalitzat
  Maxima: Minima: Mijana:
Temperatura: TemperatureC °F 3.9 °F 12 °F
Rosada: DewpointC °F -4.5 °F -1.2 °F
Humitat: Humidity % 18 % 44 %
Velocitat del vent: WindSpeedKMH mph 0.0 mph 1.7 mph
Racha vent: WindSpeedGustKMH mph - -
Vent:- - West
Pressio: PressurehPa in 1024.6 in -
Pluja: 0.0 in    
Historical Graphs
 
 
Tabular Data for Octubre 24, 2017
Time Temperature Dew Point Pressure Wind Wind Speed Wind Gust Humidity Rainfall Rate (Hourly) solar Conditions
TemperatureC °F DewpointC °F PressurehPa in Calm     Humidity % HourlyPrecipMM in SolarRadiationWatts/m^2 W/m2 Conditions
00:04 6.7 °F -1.7 °F 1027.7 in Calm     55 % 0.0 in 0.0 W/m2 CLR
00:09 6.7 °F -2.5 °F 1027.7 in Calm     52 % 0.0 in 0.0 W/m2 CLR
00:14 6.7 °F -1.5 °F 1028.0 in Calm     56 % 0.0 in 0.0 W/m2 CLR
00:19 6.7 °F -1.3 °F 1028.0 in Calm     57 % 0.0 in 0.0 W/m2 CLR
00:24 6.7 °F -1.3 °F 1028.0 in Calm     57 % 0.0 in 0.0 W/m2 CLR
00:29 6.7 °F -1.5 °F 1027.7 in Calm     56 % 0.0 in 0.0 W/m2 CLR
00:34 6.1 °F -2.0 °F 1028.0 in Calm     56 % 0.0 in 0.0 W/m2 CLR
00:39 6.1 °F -1.8 °F 1028.0 in Calm     57 % 0.0 in 0.0 W/m2 CLR
00:44 6.1 °F -2.3 °F 1028.0 in Calm     55 % 0.0 in 0.0 W/m2 CLR
00:49 6.1 °F -2.0 °F 1028.0 in Calm     56 % 0.0 in 0.0 W/m2 CLR
00:54 6.1 °F -2.3 °F 1027.7 in Calm     55 % 0.0 in 0.0 W/m2 CLR
00:59 6.1 °F -2.0 °F 1028.0 in Calm     56 % 0.0 in 0.0 W/m2 CLR
01:04 6.1 °F -1.8 °F 1028.0 in Calm     57 % 0.0 in 0.0 W/m2 CLR
01:09 6.1 °F -1.8 °F 1028.0 in Calm     57 % 0.0 in 0.0 W/m2 CLR
01:14 6.1 °F -1.6 °F 1027.7 in Calm     58 % 0.0 in 0.0 W/m2 CLR
01:19 6.1 °F -1.6 °F 1028.0 in Calm     58 % 0.0 in 0.0 W/m2 CLR
01:24 6.1 °F -1.8 °F 1028.0 in Calm     57 % 0.0 in 0.0 W/m2 CLR
01:29 6.1 °F -1.3 °F 1028.0 in Calm     59 % 0.0 in 0.0 W/m2 CLR
01:34 6.1 °F -1.6 °F 1028.0 in Calm     58 % 0.0 in 0.0 W/m2 CLR
01:36 6.1 °F -1.6 °F 1028.0 in Calm     58 % 0.0 in 0.0 W/m2 CLR
01:41 5.6 °F -2.3 °F 1028.0 in Calm     57 % 0.0 in 0.0 W/m2 CLR
01:46 5.6 °F -2.3 °F 1028.0 in Calm     57 % 0.0 in 0.0 W/m2 CLR
01:56 5.6 °F -2.6 °F 1028.0 in Calm     56 % 0.0 in 0.0 W/m2 CLR
01:57 5.6 °F -2.8 °F 1028.0 in Calm     55 % 0.0 in 0.0 W/m2 CLR
02:02 6.1 °F -2.3 °F 1028.0 in Calm     55 % 0.0 in 0.0 W/m2 CLR
02:07 6.1 °F -2.3 °F 1028.0 in Calm     55 % 0.0 in 0.0 W/m2 CLR
02:12 6.1 °F -2.3 °F 1028.0 in Calm     55 % 0.0 in 0.0 W/m2 CLR
02:17 6.7 °F -1.5 °F 1028.0 in Calm     56 % 0.0 in 0.0 W/m2 CLR
02:22 6.1 °F -1.6 °F 1028.0 in Calm     58 % 0.0 in 0.0 W/m2 CLR
02:27 6.1 °F -1.6 °F 1028.3 in Calm     58 % 0.0 in 0.0 W/m2 CLR
02:32 6.1 °F -1.6 °F 1028.0 in Calm     58 % 0.0 in 0.0 W/m2 CLR
02:37 6.1 °F -1.6 °F 1028.0 in Calm     58 % 0.0 in 0.0 W/m2 CLR
02:42 6.1 °F -1.3 °F 1028.0 in Calm     59 % 0.0 in 0.0 W/m2 CLR
02:47 6.1 °F -1.3 °F 1028.0 in Calm     59 % 0.0 in 0.0 W/m2 CLR
02:52 5.6 °F -1.8 °F 1028.0 in Calm     59 % 0.0 in 0.0 W/m2 CLR
02:57 5.6 °F -1.8 °F 1028.0 in Calm     59 % 0.0 in 0.0 W/m2 CLR
03:02 5.6 °F -1.6 °F 1028.0 in Calm     60 % 0.0 in 0.0 W/m2 CLR
03:07 5.0 °F -2.1 °F 1028.0 in Calm     60 % 0.0 in 0.0 W/m2 CLR
03:12 5.6 °F -1.6 °F 1028.0 in Calm     60 % 0.0 in 0.0 W/m2 CLR
03:17 5.6 °F -1.6 °F 1028.0 in Calm     60 % 0.0 in 0.0 W/m2 CLR
03:22 5.6 °F -1.4 °F 1028.0 in Calm     61 % 0.0 in 0.0 W/m2 CLR
03:27 5.0 °F -1.7 °F 1028.0 in Calm     62 % 0.0 in 0.0 W/m2 CLR
03:32 5.0 °F -1.7 °F 1028.0 in Calm     62 % 0.0 in 0.0 W/m2 CLR
03:37 5.0 °F -1.9 °F 1028.0 in Calm     61 % 0.0 in 0.0 W/m2 CLR
03:42 5.0 °F -1.9 °F 1028.0 in Calm     61 % 0.0 in 0.0 W/m2 CLR
03:47 5.0 °F -1.9 °F 1028.0 in Calm     61 % 0.0 in 0.0 W/m2 CLR
03:52 5.0 °F -1.9 °F 1028.0 in Calm     61 % 0.0 in 0.0 W/m2 CLR
03:57 5.6 °F -1.4 °F 1028.0 in Calm     61 % 0.0 in 0.0 W/m2 CLR
04:02 5.6 °F -1.2 °F 1028.0 in Calm     62 % 0.0 in 0.0 W/m2 CLR
04:07 5.0 °F -1.4 °F 1027.7 in Calm     63 % 0.0 in 0.0 W/m2 CLR
04:12 5.0 °F -1.3 °F 1027.7 in Calm     64 % 0.0 in 0.0 W/m2 CLR
04:17 4.4 °F -1.8 °F 1028.0 in Calm     64 % 0.0 in 0.0 W/m2 CLR
04:22 5.0 °F -1.3 °F 1028.0 in Calm     64 % 0.0 in 0.0 W/m2 CLR
04:27 5.0 °F -1.3 °F 1028.0 in Calm     64 % 0.0 in 0.0 W/m2 CLR
04:32 5.0 °F -1.1 °F 1028.0 in Calm     65 % 0.0 in 0.0 W/m2 CLR
04:37 5.6 °F -0.3 °F 1028.0 in Calm     66 % 0.0 in 0.0 W/m2 CLR
04:42 5.0 °F -0.8 °F 1028.0 in Calm     66 % 0.0 in 0.0 W/m2 CLR
04:47 5.0 °F -0.8 °F 1028.0 in Calm     66 % 0.0 in 0.0 W/m2 CLR
04:52 5.0 °F -0.8 °F 1028.0 in Calm     66 % 0.0 in 0.0 W/m2 CLR
04:57 5.0 °F -0.8 °F 1028.0 in Calm     66 % 0.0 in 0.0 W/m2 CLR
05:02 5.0 °F -1.1 °F 1028.0 in Calm     65 % 0.0 in 0.0 W/m2 CLR
05:07 5.0 °F -1.3 °F 1028.0 in Calm     64 % 0.0 in 0.0 W/m2 CLR
05:13 5.6 °F -0.9 °F 1028.0 in Calm     63 % 0.0 in 0.0 W/m2 CLR
05:18 5.0 °F -1.7 °F 1028.0 in Calm     62 % 0.0 in 0.0 W/m2 CLR
05:21 5.0 °F -1.9 °F 1028.0 in Calm     61 % 0.0 in 0.0 W/m2 CLR
05:26 5.0 °F -1.9 °F 1028.0 in Calm     61 % 0.0 in 0.0 W/m2 CLR
05:27 5.0 °F -1.9 °F 1028.0 in Calm     61 % 0.0 in 0.0 W/m2 CLR
05:32 5.0 °F -1.7 °F 1028.0 in Calm     62 % 0.0 in 0.0 W/m2 CLR
05:37 5.0 °F -1.7 °F 1028.0 in Calm     62 % 0.0 in 0.0 W/m2 CLR
05:42 5.6 °F -1.2 °F 1028.0 in Calm     62 % 0.0 in 0.0 W/m2 CLR
05:47 5.6 °F -1.4 °F 1028.0 in Calm     61 % 0.0 in 0.0 W/m2 CLR
05:52 5.6 °F -1.4 °F 1028.0 in Calm     61 % 0.0 in 0.0 W/m2 CLR
05:57 5.6 °F -1.4 °F 1028.0 in Calm     61 % 0.0 in 0.0 W/m2 CLR
06:02 5.0 °F -1.9 °F 1028.0 in Calm     61 % 0.0 in 0.0 W/m2 CLR
06:07 4.4 °F -2.4 °F 1028.0 in Calm     61 % 0.0 in 0.0 W/m2 CLR
06:12 5.0 °F -1.7 °F 1028.0 in Calm     62 % 0.0 in 0.0 W/m2 CLR
06:17 5.0 °F -1.9 °F 1028.0 in Calm     61 % 0.0 in 0.0 W/m2 CLR
06:22 4.4 °F -2.4 °F 1028.0 in Calm     61 % 0.0 in 0.0 W/m2 CLR
06:27 4.4 °F -2.4 °F 1028.0 in Calm     61 % 0.0 in 0.0 W/m2 CLR
06:28 4.4 °F -2.4 °F 1028.0 in Calm     61 % 0.0 in 0.0 W/m2 CLR
06:33 4.4 °F -2.7 °F 1028.0 in Calm     60 % 0.0 in 0.0 W/m2 CLR
06:38 4.4 °F -2.4 °F 1028.0 in Calm     61 % 0.0 in 0.0 W/m2 CLR
06:43 4.4 °F -2.4 °F 1028.0 in Calm     61 % 0.0 in 0.0 W/m2 CLR
06:48 4.4 °F -2.4 °F 1028.0 in Calm     61 % 0.0 in 0.0 W/m2 CLR
06:53 4.4 °F -2.4 °F 1028.0 in Calm     61 % 0.0 in 0.0 W/m2 CLR
06:58 4.4 °F -2.4 °F 1028.0 in Calm     61 % 0.0 in 0.0 W/m2 CLR
07:03 4.4 °F -2.2 °F 1028.0 in Calm     62 % 0.0 in 0.0 W/m2 CLR
07:08 4.4 °F -2.0 °F 1028.0 in Calm     63 % 0.0 in 0.0 W/m2 CLR
07:13 4.4 °F -2.0 °F 1028.0 in Calm     63 % 0.0 in 0.0 W/m2 CLR
07:18 4.4 °F -2.0 °F 1027.7 in Calm     63 % 0.0 in 0.0 W/m2 CLR
07:23 3.9 °F -2.5 °F 1027.7 in Calm     63 % 0.0 in 0.0 W/m2 CLR
07:28 3.9 °F -2.5 °F 1027.7 in Calm     63 % 0.0 in 0.0 W/m2 CLR
07:33 4.4 °F -2.0 °F 1028.0 in Calm     63 % 0.0 in 0.0 W/m2 CLR
07:38 4.4 °F -1.8 °F 1028.0 in Calm     64 % 0.0 in 0.0 W/m2 CLR
07:43 3.9 °F -2.3 °F 1028.0 in Calm     64 % 0.0 in 0.0 W/m2 CLR
07:48 4.4 °F -2.0 °F 1028.0 in Calm     63 % 0.0 in 0.0 W/m2 CLR
07:53 4.4 °F -2.0 °F 1028.0 in Calm     63 % 0.0 in 0.0 W/m2 CLR
07:58 5.0 °F -1.4 °F 1028.0 in Calm     63 % 0.0 in 0.0 W/m2 CLR
08:03 4.4 °F -1.8 °F 1028.0 in Calm     64 % 0.0 in 0.0 W/m2 CLR
08:08 4.4 °F -1.8 °F 1028.0 in Calm     64 % 0.0 in 0.0 W/m2 CLR
08:13 5.0 °F -1.4 °F 1028.0 in Calm     63 % 0.0 in 0.0 W/m2 OVC
08:18 5.0 °F -1.3 °F 1028.0 in Calm     64 % 0.0 in 5.0 W/m2 OVC
08:23 4.4 °F -2.0 °F 1028.0 in Calm     63 % 0.0 in 7.0 W/m2 OVC
08:28 4.4 °F -2.0 °F 1028.0 in Calm     63 % 0.0 in 9.0 W/m2 BKN
08:33 4.4 °F -2.0 °F 1028.0 in Calm     63 % 0.0 in 11.0 W/m2 BKN
08:38 4.4 °F -1.8 °F 1028.0 in Calm     64 % 0.0 in 12.0 W/m2 BKN
08:43 4.4 °F -2.0 °F 1028.0 in Calm     63 % 0.0 in 14.0 W/m2 BKN
08:48 5.0 °F -1.4 °F 1028.0 in Calm     63 % 0.0 in 18.0 W/m2 BKN
08:53 5.0 °F -1.9 °F 1028.0 in Calm     61 % 0.0 in 25.0 W/m2 BKN
08:58 5.0 °F -1.9 °F 1028.0 in Calm     61 % 0.0 in 33.0 W/m2 BKN
09:03 5.0 °F -1.9 °F 1028.0 in Calm     61 % 0.0 in 49.0 W/m2 SCT
09:08 5.6 °F -1.6 °F 1028.0 in Calm     60 % 0.0 in 58.0 W/m2 SCT
09:13 5.6 °F -2.1 °F 1028.3 in Calm     58 % 0.0 in 76.0 W/m2 FEW
09:18 5.6 °F -1.8 °F 1028.3 in Calm     59 % 0.0 in 91.0 W/m2 CLR
09:23 5.6 °F -2.3 °F 1028.3 in Calm     57 % 0.0 in 98.0 W/m2 FEW
09:29 5.6 °F -3.3 °F 1028.3 in Calm     53 % 0.0 in 123.0 W/m2 CLR
09:34 6.1 °F -2.8 °F 1028.3 in Calm     53 % 0.0 in 107.0 W/m2 CLR
09:39 6.7 °F -1.7 °F 1028.3 in Calm     55 % 0.0 in 149.0 W/m2 CLR
09:44 6.7 °F -2.2 °F 1028.3 in Calm     53 % 0.0 in 169.0 W/m2 CLR
09:49 7.2 °F -2.3 °F 1028.7 in Calm     51 % 0.0 in 185.0 W/m2 CLR
09:54 7.2 °F -2.8 °F 1028.3 in Calm     49 % 0.0 in 214.0 W/m2 CLR
09:59 7.8 °F -2.3 °F 1028.7 in Calm     49 % 0.0 in 209.0 W/m2 CLR
10:09 8.9 °F -1.6 °F 1028.7 in Calm     48 % 0.0 in 265.0 W/m2 CLR
10:14 8.9 °F -2.1 °F 1028.7 in Calm     46 % 0.0 in 269.0 W/m2 CLR
10:19 9.4 °F -1.9 °F 1028.7 in Calm     45 % 0.0 in 288.0 W/m2 CLR
10:24 9.4 °F -2.2 °F 1028.7 in Calm     44 % 0.0 in 304.0 W/m2 CLR
10:29 10.0 °F -1.7 °F 1028.7 in Calm     44 % 0.0 in 297.0 W/m2 CLR
10:34 10.6 °F -1.5 °F 1028.7 in Calm     43 % 0.0 in 309.0 W/m2 CLR
10:39 11.1 °F -1.0 °F 1028.7 in Calm     43 % 0.0 in 329.0 W/m2 CLR
10:44 11.7 °F -1.2 °F 1028.7 in Calm     41 % 0.0 in 355.0 W/m2 CLR
10:49 12.2 °F -1.0 °F 1028.7 in Calm     40 % 0.0 in 369.0 W/m2 CLR
10:54 12.8 °F -0.8 °F 1028.3 in Calm     39 % 0.0 in 380.0 W/m2 CLR
10:59 13.9 °F 0.2 °F 1028.3 in Calm     39 % 0.0 in 392.0 W/m2 CLR
11:04 14.4 °F 0.7 °F 1028.3 in Calm     39 % 0.0 in 401.0 W/m2 CLR
11:09 14.4 °F -0.1 °F 1028.3 in Calm     37 % 0.0 in 415.0 W/m2 CLR
11:14 15.0 °F 0.4 °F 1028.3 in Calm     37 % 0.0 in 425.0 W/m2 CLR
11:19 15.6 °F 0.1 °F 1028.3 in North 5.6 mph 5.6 mph 35 % 0.0 in 436.0 W/m2 CLR
11:24 16.1 °F 0.2 °F 1028.3 in NNW 5.6 mph 5.6 mph 34 % 0.0 in 443.0 W/m2 CLR
11:29 16.7 °F 0.7 °F 1028.3 in North 8.0 mph 8.0 mph 34 % 0.0 in 455.0 W/m2 CLR
11:34 16.7 °F -0.1 °F 1028.3 in NNW 5.6 mph 5.6 mph 32 % 0.0 in 468.0 W/m2 CLR
11:39 17.2 °F 0.8 °F 1028.3 in Calm     33 % 0.0 in 478.0 W/m2 CLR
11:44 17.8 °F 0.8 °F 1028.0 in NNW 5.6 mph 5.6 mph 32 % 0.0 in 487.0 W/m2 CLR
11:49 18.3 °F 0.9 °F 1028.0 in NW 5.6 mph 5.6 mph 31 % 0.0 in 496.0 W/m2 CLR
11:54 18.3 °F 0.4 °F 1028.0 in North 1.9 mph   30 % 0.0 in 504.0 W/m2 CLR
11:59 18.9 °F 1.4 °F 1028.0 in Calm     31 % 0.0 in 513.0 W/m2 CLR
12:04 19.4 °F 0.9 °F 1028.0 in West 3.7 mph 3.7 mph 29 % 0.0 in 520.0 W/m2 CLR
12:09 19.4 °F -1.7 °F 1028.0 in SW 14.8 mph 14.8 mph 24 % 0.0 in 531.0 W/m2 CLR
12:14 20.0 °F -1.2 °F 1028.0 in SW 16.1 mph 16.1 mph 24 % 0.0 in 538.0 W/m2 CLR
12:19 20.6 °F -1.3 °F 1028.0 in WSW 9.3 mph 9.3 mph 23 % 0.0 in 547.0 W/m2 CLR
12:24 21.1 °F -0.8 °F 1028.0 in SW 11.1 mph 11.1 mph 23 % 0.0 in 541.0 W/m2 CLR
12:29 21.7 °F -1.0 °F 1027.7 in WSW 18.5 mph 18.5 mph 22 % 0.0 in 547.0 W/m2 CLR
12:34 21.7 °F -1.0 °F 1028.0 in SW 7.4 mph 7.4 mph 22 % 0.0 in 564.0 W/m2 CLR
12:39 21.7 °F -1.0 °F 1027.7 in SSW 7.4 mph 7.4 mph 22 % 0.0 in 573.0 W/m2 CLR
12:44 22.2 °F -0.6 °F 1027.7 in SW 18.5 mph 18.5 mph 22 % 0.0 in 587.0 W/m2 CLR
12:49 22.2 °F -1.2 °F 1027.7 in SSW 11.1 mph 11.1 mph 21 % 0.0 in 570.0 W/m2 CLR
12:54 22.2 °F -1.2 °F 1027.7 in WSW 13.0 mph 13.0 mph 21 % 0.0 in 534.0 W/m2 CLR
12:59 22.2 °F -0.6 °F 1027.7 in WSW 5.6 mph 5.6 mph 22 % 0.0 in 578.0 W/m2 CLR
13:04 22.2 °F -0.6 °F 1027.7 in WSW 12.9 mph 12.9 mph 22 % 0.0 in 592.0 W/m2 CLR
13:09 22.2 °F -1.2 °F 1027.3 in WSW 11.1 mph 11.1 mph 21 % 0.0 in 598.0 W/m2 CLR
13:14 22.8 °F -0.7 °F 1027.3 in Calm     21 % 0.0 in 601.0 W/m2 CLR
13:19 22.8 °F -2.1 °F 1027.3 in SW 5.6 mph 5.6 mph 19 % 0.0 in 605.0 W/m2 CLR
13:24 22.8 °F -2.1 °F 1027.3 in West 13.0 mph 13.0 mph 19 % 0.0 in 601.0 W/m2 CLR
13:29 22.8 °F -2.1 °F 1027.3 in SW 9.3 mph 9.3 mph 19 % 0.0 in 610.0 W/m2 CLR
13:34 22.8 °F -2.1 °F 1027.0 in West 7.4 mph 7.4 mph 19 % 0.0 in 622.0 W/m2 CLR
13:39 22.8 °F -2.1 °F 1027.0 in WNW 7.4 mph 7.4 mph 19 % 0.0 in 606.0 W/m2 CLR
13:44 22.8 °F -2.1 °F 1027.0 in WSW 11.1 mph 11.1 mph 19 % 0.0 in 584.0 W/m2 CLR
13:49 22.8 °F -2.1 °F 1027.0 in WSW 11.1 mph 11.1 mph 19 % 0.0 in 628.0 W/m2 CLR
13:54 22.8 °F -2.1 °F 1026.6 in WNW 6.4 mph 6.4 mph 19 % 0.0 in 594.0 W/m2 CLR
13:59 23.3 °F -2.3 °F 1026.6 in SSW 5.6 mph 5.6 mph 18 % 0.0 in 517.0 W/m2 CLR
14:03 23.9 °F -1.9 °F 1026.6 in West 6.4 mph 6.4 mph 18 % 0.0 in 554.0 W/m2 CLR
14:08 23.3 °F -1.6 °F 1026.3 in SW 5.6 mph 5.6 mph 19 % 0.0 in 526.0 W/m2 CLR
14:13 23.3 °F -1.6 °F 1026.3 in Calm     19 % 0.0 in 540.0 W/m2 CLR
14:18 23.9 °F -0.4 °F 1026.3 in SW 9.3 mph 9.3 mph 20 % 0.0 in 584.0 W/m2 CLR
14:23 23.9 °F -0.4 °F 1026.3 in SW 5.6 mph 7.4 mph 20 % 0.0 in 506.0 W/m2 CLR
14:28 23.9 °F -1.2 °F 1026.3 in SW 13.0 mph 13.0 mph 19 % 0.0 in 512.0 W/m2 CLR
14:33 23.9 °F -1.2 °F 1026.0 in SSW 7.4 mph 7.4 mph 19 % 0.0 in 506.0 W/m2 CLR
14:38 23.9 °F -1.2 °F 1026.0 in Calm     19 % 0.0 in 468.0 W/m2 CLR
14:43 24.4 °F -0.7 °F 1026.0 in WNW 9.7 mph 9.7 mph 19 % 0.0 in 577.0 W/m2 CLR
14:48 24.4 °F -0.7 °F 1026.0 in Calm     19 % 0.0 in 587.0 W/m2 CLR
14:53 23.9 °F -0.4 °F 1025.6 in WSW 5.6 mph 5.6 mph 20 % 0.0 in 517.0 W/m2 CLR
14:58 23.9 °F -0.4 °F 1025.6 in SSW 5.6 mph 5.6 mph 20 % 0.0 in 552.0 W/m2 CLR
15:03 23.9 °F -1.2 °F 1025.6 in WNW 7.4 mph 7.4 mph 19 % 0.0 in 552.0 W/m2 CLR
15:08 23.9 °F -1.2 °F 1025.6 in WSW 9.3 mph 9.3 mph 19 % 0.0 in 531.0 W/m2 CLR
15:13 23.9 °F -1.2 °F 1025.3 in WNW 3.7 mph 3.7 mph 19 % 0.0 in 496.0 W/m2 CLR
15:18 23.9 °F -1.2 °F 1025.3 in WNW 1.9 mph 1.9 mph 19 % 0.0 in 552.0 W/m2 CLR
15:23 23.9 °F -1.2 °F 1025.3 in NW 8.0 mph 8.0 mph 19 % 0.0 in 531.0 W/m2 CLR
15:28 23.9 °F -0.4 °F 1025.3 in WNW 11.1 mph 11.1 mph 20 % 0.0 in 487.0 W/m2 CLR
15:33 23.9 °F -0.4 °F 1025.3 in NNW 5.6 mph   20 % 0.0 in 483.0 W/m2 CLR
15:38 23.9 °F -0.4 °F 1024.9 in NW 7.4 mph 7.4 mph 20 % 0.0 in 418.0 W/m2 CLR
15:43 23.9 °F -0.4 °F 1025.3 in WNW 5.6 mph 5.6 mph 20 % 0.0 in 378.0 W/m2 CLR
15:48 23.9 °F -0.4 °F 1024.9 in NW 7.4 mph 7.4 mph 20 % 0.0 in 373.0 W/m2 CLR
15:53 23.9 °F 0.2 °F 1024.9 in West 9.3 mph 9.3 mph 21 % 0.0 in 360.0 W/m2 CLR
15:58 23.9 °F 0.2 °F 1024.9 in NNW 5.6 mph 5.6 mph 21 % 0.0 in 327.0 W/m2 CLR
16:03 23.3 °F -0.2 °F 1024.9 in WNW 7.4 mph 7.4 mph 21 % 0.0 in 406.0 W/m2 CLR
16:08 23.3 °F -0.2 °F 1024.9 in WNW 13.0 mph 13.0 mph 21 % 0.0 in 380.0 W/m2 CLR
16:13 23.9 °F 0.9 °F 1024.9 in West 5.6 mph   22 % 0.0 in 439.0 W/m2 CLR
16:18 23.9 °F 0.2 °F 1024.9 in NW 7.4 mph 7.4 mph 21 % 0.0 in 431.0 W/m2 CLR
16:23 23.9 °F 0.9 °F 1024.9 in WNW 7.4 mph 7.4 mph 22 % 0.0 in 406.0 W/m2 CLR
16:28 23.9 °F 0.9 °F 1024.9 in WNW 9.3 mph 9.3 mph 22 % 0.0 in 345.0 W/m2 CLR
16:33 23.9 °F 0.9 °F 1024.9 in West 5.6 mph 5.6 mph 22 % 0.0 in 327.0 W/m2 CLR
16:38 23.9 °F 0.9 °F 1024.9 in West 4.8 mph 4.8 mph 22 % 0.0 in 401.0 W/m2 CLR
16:43 23.9 °F 0.9 °F 1024.6 in WNW 5.6 mph 5.6 mph 22 % 0.0 in 380.0 W/m2 CLR
16:48 23.9 °F 1.5 °F 1024.6 in Calm     23 % 0.0 in 320.0 W/m2 CLR
16:53 23.9 °F 1.5 °F 1024.6 in Calm     23 % 0.0 in 260.0 W/m2 CLR
16:58 23.3 °F 2.2 °F 1024.6 in WNW 3.7 mph 3.7 mph 25 % 0.0 in 271.0 W/m2 CLR
17:03 23.3 °F 2.7 °F 1024.6 in Calm     26 % 0.0 in 271.0 W/m2 CLR
17:08 23.3 °F 2.2 °F 1024.6 in WSW 5.6 mph 5.6 mph 25 % 0.0 in 288.0 W/m2 CLR
17:13 23.3 °F 1.0 °F 1024.6 in Calm     23 % 0.0 in 274.0 W/m2 CLR
17:18 23.3 °F 1.6 °F 1024.6 in Calm     24 % 0.0 in 214.0 W/m2 CLR
17:23 23.3 °F 2.2 °F 1024.6 in Calm     25 % 0.0 in 193.0 W/m2 CLR
17:28 22.8 °F 1.2 °F 1024.6 in Calm     24 % 0.0 in 193.0 W/m2 CLR
17:33 22.8 °F 1.7 °F 1024.6 in NNW 1.9 mph   25 % 0.0 in 179.0 W/m2 CLR
17:34 22.8 °F 1.2 °F 1024.6 in Calm     24 % 0.0 in 171.0 W/m2 CLR
17:39 22.8 °F 0.6 °F 1024.6 in Calm     23 % 0.0 in 155.0 W/m2 CLR
17:44 22.2 °F 0.1 °F 1024.6 in Calm     23 % 0.0 in 148.0 W/m2 CLR
17:49 22.2 °F 0.7 °F 1024.6 in Calm     24 % 0.0 in 116.0 W/m2 CLR
17:54 21.7 °F 0.2 °F 1024.6 in Calm     24 % 0.0 in 102.0 W/m2 CLR
17:59 21.1 °F 0.3 °F 1024.6 in Calm     25 % 0.0 in 84.0 W/m2 CLR
18:04 20.6 °F -0.2 °F 1024.6 in Calm     25 % 0.0 in 104.0 W/m2 CLR
18:09 19.4 °F -2.3 °F 1024.6 in Calm     23 % 0.0 in 83.0 W/m2 FEW
18:14 18.9 °F -2.7 °F 1024.6 in Calm     23 % 0.0 in 81.0 W/m2 FEW
18:19 18.3 °F -2.6 °F 1024.6 in Calm     24 % 0.0 in 76.0 W/m2 FEW
18:24 18.3 °F -2.1 °F 1024.6 in Calm     25 % 0.0 in 63.0 W/m2 FEW
18:29 17.8 °F -2.6 °F 1024.6 in Calm     25 % 0.0 in 54.0 W/m2 SCT
18:34 17.2 °F -3.0 °F 1024.6 in Calm     25 % 0.0 in 56.0 W/m2 SCT
18:39 17.2 °F -3.6 °F 1024.6 in Calm     24 % 0.0 in 39.0 W/m2 BKN
18:44 16.7 °F -4.0 °F 1024.9 in Calm     24 % 0.0 in 28.0 W/m2 BKN
18:49 16.1 °F -4.5 °F 1024.9 in Calm     24 % 0.0 in 23.0 W/m2 BKN
18:54 15.6 °F -4.4 °F 1024.9 in Calm     25 % 0.0 in 18.0 W/m2 BKN
18:59 15.0 °F -4.4 °F 1024.9 in Calm     26 % 0.0 in 12.0 W/m2 BKN
19:04 15.0 °F -4.4 °F 1024.9 in Calm     26 % 0.0 in 11.0 W/m2 BKN
19:09 15.0 °F -3.9 °F 1024.9 in Calm     27 % 0.0 in 9.0 W/m2 OVC
19:14 15.0 °F -3.4 °F 1024.9 in Calm     28 % 0.0 in 7.0 W/m2 OVC
19:19 15.0 °F -2.9 °F 1024.9 in Calm     29 % 0.0 in 0.0 W/m2 CLR
19:25 15.0 °F -2.9 °F 1024.9 in Calm     29 % 0.0 in 0.0 W/m2 CLR
19:30 15.0 °F -2.9 °F 1024.9 in Calm     29 % 0.0 in 0.0 W/m2 CLR
19:35 15.0 °F -2.0 °F 1024.9 in Calm     31 % 0.0 in 0.0 W/m2 CLR
19:40 14.4 °F -1.2 °F 1024.9 in Calm     34 % 0.0 in 0.0 W/m2 CLR
19:45 14.4 °F -1.2 °F 1025.3 in Calm     34 % 0.0 in 0.0 W/m2 CLR
19:50 13.9 °F -1.3 °F 1025.3 in Calm     35 % 0.0 in 0.0 W/m2 CLR
19:55 13.9 °F -1.3 °F 1025.3 in Calm     35 % 0.0 in 0.0 W/m2 CLR
20:00 13.3 °F -1.4 °F 1025.3 in Calm     36 % 0.0 in 0.0 W/m2 CLR
20:05 13.3 °F -1.4 °F 1025.3 in Calm     36 % 0.0 in 0.0 W/m2 CLR
20:10 12.8 °F -1.6 °F 1025.3 in Calm     37 % 0.0 in 0.0 W/m2 CLR
20:15 12.8 °F -1.6 °F 1025.3 in Calm     37 % 0.0 in 0.0 W/m2 CLR
20:20 12.2 °F -1.3 °F 1025.3 in Calm     39 % 0.0 in 0.0 W/m2 CLR
20:25 12.2 °F -1.0 °F 1025.3 in Calm     40 % 0.0 in 0.0 W/m2 CLR
20:26 12.2 °F -1.0 °F 1025.3 in Calm     40 % 0.0 in 0.0 W/m2 CLR
20:30 12.2 °F -0.7 °F 1025.3 in Calm     41 % 0.0 in 0.0 W/m2 CLR
20:35 11.7 °F -0.8 °F 1025.3 in Calm     42 % 0.0 in 0.0 W/m2 CLR
20:40 11.7 °F -0.5 °F 1025.6 in Calm     43 % 0.0 in 0.0 W/m2 CLR
20:45 11.1 °F -1.0 °F 1025.6 in Calm     43 % 0.0 in 0.0 W/m2 CLR
20:50 10.6 °F -1.2 °F 1025.6 in Calm     44 % 0.0 in 0.0 W/m2 CLR
20:55 10.6 °F -1.2 °F 1025.6 in Calm     44 % 0.0 in 0.0 W/m2 CLR
21:00 10.0 °F -1.7 °F 1025.6 in Calm     44 % 0.0 in 0.0 W/m2 CLR
21:05 10.0 °F -1.7 °F 1025.6 in Calm     44 % 0.0 in 0.0 W/m2 CLR
21:10 9.4 °F -1.9 °F 1025.6 in Calm     45 % 0.0 in 0.0 W/m2 CLR
21:15 9.4 °F -1.9 °F 1025.6 in Calm     45 % 0.0 in 0.0 W/m2 CLR
21:20 9.4 °F -1.6 °F 1025.6 in Calm     46 % 0.0 in 0.0 W/m2 CLR
21:25 9.4 °F -1.3 °F 1025.6 in Calm     47 % 0.0 in 0.0 W/m2 CLR
21:30 8.9 °F -1.8 °F 1025.6 in Calm     47 % 0.0 in 0.0 W/m2 CLR
21:35 8.9 °F -1.8 °F 1025.6 in Calm     47 % 0.0 in 0.0 W/m2 CLR
21:40 8.9 °F -1.8 °F 1025.6 in Calm     47 % 0.0 in 0.0 W/m2 CLR
21:45 8.3 °F -2.3 °F 1025.6 in Calm     47 % 0.0 in 0.0 W/m2 CLR
21:50 8.3 °F -2.3 °F 1025.6 in Calm     47 % 0.0 in 0.0 W/m2 CLR
21:55 8.3 °F -2.1 °F 1025.6 in Calm     48 % 0.0 in 0.0 W/m2 CLR
22:00 8.3 °F -2.1 °F 1025.6 in Calm     48 % 0.0 in 0.0 W/m2 CLR
22:05 8.3 °F -1.8 °F 1026.0 in Calm     49 % 0.0 in 0.0 W/m2 CLR
22:10 8.3 °F -1.5 °F 1026.0 in Calm     50 % 0.0 in 0.0 W/m2 CLR
22:15 8.3 °F -1.2 °F 1026.0 in Calm     51 % 0.0 in 0.0 W/m2 CLR
22:20 8.3 °F -1.2 °F 1026.0 in Calm     51 % 0.0 in 0.0 W/m2 CLR
22:25 8.9 °F -0.7 °F 1026.0 in Calm     51 % 0.0 in 0.0 W/m2 CLR
22:30 10.0 °F 0.6 °F 1026.0 in Calm     52 % 0.0 in 0.0 W/m2 CLR
22:35 10.0 °F 0.6 °F 1026.0 in Calm     52 % 0.0 in 0.0 W/m2 CLR
22:40 9.4 °F 0.1 °F 1026.0 in Calm     52 % 0.0 in 0.0 W/m2 CLR
22:45 8.9 °F -0.2 °F 1026.0 in Calm     53 % 0.0 in 0.0 W/m2 CLR
22:51 8.9 °F -0.2 °F 1026.0 in Calm     53 % 0.0 in 0.0 W/m2 CLR
22:56 8.3 °F -0.4 °F 1026.0 in Calm     54 % 0.0 in 0.0 W/m2 CLR
23:01 8.3 °F -0.4 °F 1026.0 in Calm     54 % 0.0 in 0.0 W/m2 CLR
23:06 8.3 °F -0.2 °F 1026.0 in Calm     55 % 0.0 in 0.0 W/m2 CLR
23:11 8.9 °F 0.3 °F 1026.3 in Calm     55 % 0.0 in 0.0 W/m2 CLR
23:16 8.9 °F 0.3 °F 1026.3 in Calm     55 % 0.0 in 0.0 W/m2 CLR
23:21 8.9 °F 0.3 °F 1026.3 in Calm     55 % 0.0 in 0.0 W/m2 CLR
23:26 8.9 °F 0.6 °F 1026.3 in Calm     56 % 0.0 in 0.0 W/m2 CLR
23:31 8.3 °F 0.1 °F 1026.3 in Calm     56 % 0.0 in 0.0 W/m2 CLR
23:36 8.3 °F 0.1 °F 1026.3 in Calm     56 % 0.0 in 0.0 W/m2 CLR
23:41 8.9 °F 0.6 °F 1026.3 in Calm     56 % 0.0 in 0.0 W/m2 CLR
23:46 8.9 °F 0.8 °F 1026.3 in Calm     57 % 0.0 in 0.0 W/m2 CLR
23:51 8.9 °F 0.8 °F 1026.6 in Calm     57 % 0.0 in 0.0 W/m2 CLR
23:56 8.3 °F 0.3 °F 1026.3 in Calm     57 % 0.0 in 0.0 W/m2 CLR
Lo Temps de Massalio
Compliments of Weather Underground - 1.25 mb